Etusivu
METAR-TAF:

METAR-TAF

Lentoasemat :

Pearland Regional Airport

Houston / Pearland, Texas, Yhdysvallat

Leveyspiiri: 29-31-16N, Pituuspiiri: 095-14-31W, korkeus merenpinnasta: 13 m

Tämänhetkinen sää

Tämä raportti tehtiin 56 minuuttia sitten, kello 03.53 UTC
Tuuli 3 kn idästä/kaakosta
Lämpötila 23°C
Kosteus 94%
Ilmanpaine 1016 hPa
Näkyvyys: 6.4 km
Pilvistä 300 ft:n korkeudessa
utua

METAR: KLVJ 070353Z AUTO 12003KT 4SM BR OVC003 23/22 A3001 RMK AO2 SLP160 T02330217

Aika: 23:49 (04:49 UTC)


TAF: puuttuu

Säähavainnot ja -ennusteet yli 4000 lentoasemalta (METAR- ja TAF-raportit).

Käytössä olevat sääasemat on merkitty karttaan keltaisilla ja punaisilla pisteillä.

Aseta hiiri pisteen päälle nähdäksesi sääaseman nimen.

Klikkaa sitten nähdäksesi säähavainnot ja -ennusteet.

Kartan vaihtaminen: klikkaa mustalla rastilla varustettuja vihreitä pisteitä, niin voit zoomata sisään; viivalla varustettua vihreää pistettä, niin voit zoomata ulos tai vihreitä nuolia, niin pääset viereisille kartoille.


METAR-TAF: